sensor_id;sensor_type;location;lat;lon;timestamp;P1;durP1;ratioP1;P2;durP2;ratioP2
76409;SDS011;65238;42.662;23.280;2024-02-21T00:01:34;9.25;;;4.97;;
76409;SDS011;65238;42.662;23.280;2024-02-21T00:04:00;8.27;;;5.30;;
76409;SDS011;65238;42.662;23.280;2024-02-21T00:06:25;8.45;;;5.47;;
76409;SDS011;65238;42.662;23.280;2024-02-21T00:08:51;9.48;;;5.70;;
76409;SDS011;65238;42.662;23.280;2024-02-21T00:11:16;9.10;;;5.28;;
76409;SDS011;65238;42.662;23.280;2024-02-21T00:13:42;9.15;;;5.60;;
76409;SDS011;65238;42.662;23.280;2024-02-21T00:16:07;8.48;;;5.25;;
76409;SDS011;65238;42.662;23.280;2024-02-21T00:18:32;11.07;;;5.40;;
76409;SDS011;65238;42.662;23.280;2024-02-21T00:20:58;7.45;;;4.90;;
76409;SDS011;65238;42.662;23.280;2024-02-21T00:23:23;7.28;;;4.50;;
76409;SDS011;65238;42.662;23.280;2024-02-21T00:25:49;8.07;;;5.22;;
76409;SDS011;65238;42.662;23.280;2024-02-21T00:28:14;8.88;;;5.28;;
76409;SDS011;65238;42.662;23.280;2024-02-21T00:30:40;7.15;;;4.53;;
76409;SDS011;65238;42.662;23.280;2024-02-21T00:33:05;9.27;;;4.72;;
76409;SDS011;65238;42.662;23.280;2024-02-21T00:35:31;8.32;;;5.05;;
76409;SDS011;65238;42.662;23.280;2024-02-21T00:37:56;8.77;;;4.97;;
76409;SDS011;65238;42.662;23.280;2024-02-21T00:40:22;6.68;;;4.80;;
76409;SDS011;65238;42.662;23.280;2024-02-21T00:42:48;7.60;;;5.20;;
76409;SDS011;65238;42.662;23.280;2024-02-21T00:45:13;8.20;;;5.30;;
76409;SDS011;65238;42.662;23.280;2024-02-21T00:47:39;9.70;;;5.47;;
76409;SDS011;65238;42.662;23.280;2024-02-21T00:50:05;8.77;;;5.50;;
76409;SDS011;65238;42.662;23.280;2024-02-21T00:52:32;9.40;;;5.70;;
76409;SDS011;65238;42.662;23.280;2024-02-21T00:54:58;9.82;;;5.78;;
76409;SDS011;65238;42.662;23.280;2024-02-21T00:57:23;8.07;;;5.13;;
76409;SDS011;65238;42.662;23.280;2024-02-21T00:59:48;9.38;;;5.18;;
76409;SDS011;65238;42.662;23.280;2024-02-21T01:02:14;9.48;;;6.15;;
76409;SDS011;65238;42.662;23.280;2024-02-21T01:04:39;7.47;;;5.15;;
76409;SDS011;65238;42.662;23.280;2024-02-21T01:07:05;8.95;;;6.10;;
76409;SDS011;65238;42.662;23.280;2024-02-21T01:09:30;8.30;;;5.50;;
76409;SDS011;65238;42.662;23.280;2024-02-21T01:11:56;10.57;;;6.13;;
76409;SDS011;65238;42.662;23.280;2024-02-21T01:14:22;9.07;;;5.25;;
76409;SDS011;65238;42.662;23.280;2024-02-21T01:16:47;8.85;;;5.90;;
76409;SDS011;65238;42.662;23.280;2024-02-21T01:19:12;10.18;;;5.70;;
76409;SDS011;65238;42.662;23.280;2024-02-21T01:21:38;7.25;;;5.07;;
76409;SDS011;65238;42.662;23.280;2024-02-21T01:24:03;8.75;;;5.70;;
76409;SDS011;65238;42.662;23.280;2024-02-21T01:26:29;9.88;;;5.70;;
76409;SDS011;65238;42.662;23.280;2024-02-21T01:28:54;9.40;;;5.68;;
76409;SDS011;65238;42.662;23.280;2024-02-21T01:31:20;10.45;;;5.38;;
76409;SDS011;65238;42.662;23.280;2024-02-21T01:33:45;9.15;;;5.57;;
76409;SDS011;65238;42.662;23.280;2024-02-21T01:36:10;8.88;;;5.63;;
76409;SDS011;65238;42.662;23.280;2024-02-21T01:38:36;8.20;;;5.78;;
76409;SDS011;65238;42.662;23.280;2024-02-21T01:41:02;9.55;;;5.80;;
76409;SDS011;65238;42.662;23.280;2024-02-21T01:43:27;10.68;;;6.60;;
76409;SDS011;65238;42.662;23.280;2024-02-21T01:45:53;10.38;;;6.55;;
76409;SDS011;65238;42.662;23.280;2024-02-21T01:48:21;10.77;;;6.80;;
76409;SDS011;65238;42.662;23.280;2024-02-21T01:50:47;11.98;;;7.18;;
76409;SDS011;65238;42.662;23.280;2024-02-21T01:53:30;12.93;;;7.75;;
76409;SDS011;65238;42.662;23.280;2024-02-21T01:55:58;13.35;;;8.18;;
76409;SDS011;65238;42.662;23.280;2024-02-21T01:58:23;14.98;;;8.18;;
76409;SDS011;65238;42.662;23.280;2024-02-21T02:00:49;15.48;;;9.02;;
76409;SDS011;65238;42.662;23.280;2024-02-21T02:03:15;16.88;;;9.73;;
76409;SDS011;65238;42.662;23.280;2024-02-21T02:05:47;14.43;;;8.95;;
76409;SDS011;65238;42.662;23.280;2024-02-21T02:08:14;17.55;;;9.93;;
76409;SDS011;65238;42.662;23.280;2024-02-21T02:10:43;16.90;;;9.50;;
76409;SDS011;65238;42.662;23.280;2024-02-21T02:13:10;18.50;;;9.88;;
76409;SDS011;65238;42.662;23.280;2024-02-21T02:15:39;16.15;;;9.60;;
76409;SDS011;65238;42.662;23.280;2024-02-21T02:18:04;17.92;;;9.95;;
76409;SDS011;65238;42.662;23.280;2024-02-21T02:20:30;18.60;;;10.65;;
76409;SDS011;65238;42.662;23.280;2024-02-21T02:22:55;18.10;;;10.35;;
76409;SDS011;65238;42.662;23.280;2024-02-21T02:25:21;20.65;;;10.52;;
76409;SDS011;65238;42.662;23.280;2024-02-21T02:27:47;20.48;;;11.30;;
76409;SDS011;65238;42.662;23.280;2024-02-21T02:30:12;22.02;;;11.77;;
76409;SDS011;65238;42.662;23.280;2024-02-21T02:32:38;19.50;;;11.05;;
76409;SDS011;65238;42.662;23.280;2024-02-21T02:35:03;21.90;;;11.93;;
76409;SDS011;65238;42.662;23.280;2024-02-21T02:37:29;20.05;;;11.63;;
76409;SDS011;65238;42.662;23.280;2024-02-21T02:39:54;20.48;;;11.77;;
76409;SDS011;65238;42.662;23.280;2024-02-21T02:42:20;18.98;;;10.88;;
76409;SDS011;65238;42.662;23.280;2024-02-21T02:44:45;22.23;;;12.20;;
76409;SDS011;65238;42.662;23.280;2024-02-21T02:47:13;19.48;;;10.80;;
76409;SDS011;65238;42.662;23.280;2024-02-21T02:49:39;20.13;;;10.75;;
76409;SDS011;65238;42.662;23.280;2024-02-21T02:52:04;21.15;;;11.52;;
76409;SDS011;65238;42.662;23.280;2024-02-21T02:54:30;20.35;;;11.43;;
76409;SDS011;65238;42.662;23.280;2024-02-21T02:56:55;19.30;;;10.48;;
76409;SDS011;65238;42.662;23.280;2024-02-21T02:59:20;18.70;;;11.98;;
76409;SDS011;65238;42.662;23.280;2024-02-21T03:01:46;18.05;;;10.38;;
76409;SDS011;65238;42.662;23.280;2024-02-21T03:04:11;19.58;;;10.07;;
76409;SDS011;65238;42.662;23.280;2024-02-21T03:06:37;18.75;;;10.63;;
76409;SDS011;65238;42.662;23.280;2024-02-21T03:09:02;17.23;;;10.93;;
76409;SDS011;65238;42.662;23.280;2024-02-21T03:11:33;21.92;;;11.55;;
76409;SDS011;65238;42.662;23.280;2024-02-21T03:13:59;19.00;;;10.35;;
76409;SDS011;65238;42.662;23.280;2024-02-21T03:16:24;20.23;;;11.55;;
76409;SDS011;65238;42.662;23.280;2024-02-21T03:18:50;19.92;;;11.25;;
76409;SDS011;65238;42.662;23.280;2024-02-21T03:21:15;19.50;;;11.20;;
76409;SDS011;65238;42.662;23.280;2024-02-21T03:23:41;23.05;;;12.25;;
76409;SDS011;65238;42.662;23.280;2024-02-21T03:26:06;20.00;;;11.75;;
76409;SDS011;65238;42.662;23.280;2024-02-21T03:28:32;24.63;;;13.63;;
76409;SDS011;65238;42.662;23.280;2024-02-21T03:30:57;22.55;;;13.02;;
76409;SDS011;65238;42.662;23.280;2024-02-21T03:33:22;22.55;;;13.32;;
76409;SDS011;65238;42.662;23.280;2024-02-21T03:35:48;20.77;;;11.77;;
76409;SDS011;65238;42.662;23.280;2024-02-21T03:38:14;24.05;;;14.02;;
76409;SDS011;65238;42.662;23.280;2024-02-21T03:40:39;21.67;;;12.48;;
76409;SDS011;65238;42.662;23.280;2024-02-21T03:43:05;24.75;;;13.05;;
76409;SDS011;65238;42.662;23.280;2024-02-21T03:45:30;21.50;;;12.80;;
76409;SDS011;65238;42.662;23.280;2024-02-21T03:47:56;40.38;;;17.80;;
76409;SDS011;65238;42.662;23.280;2024-02-21T03:50:21;66.28;;;24.98;;
76409;SDS011;65238;42.662;23.280;2024-02-21T03:52:46;32.20;;;15.88;;
76409;SDS011;65238;42.662;23.280;2024-02-21T03:55:12;30.95;;;16.05;;
76409;SDS011;65238;42.662;23.280;2024-02-21T03:57:37;27.27;;;13.52;;
76409;SDS011;65238;42.662;23.280;2024-02-21T04:00:03;28.05;;;14.70;;
76409;SDS011;65238;42.662;23.280;2024-02-21T04:02:35;25.65;;;14.35;;
76409;SDS011;65238;42.662;23.280;2024-02-21T04:05:01;29.20;;;14.35;;
76409;SDS011;65238;42.662;23.280;2024-02-21T04:07:26;22.95;;;13.13;;
76409;SDS011;65238;42.662;23.280;2024-02-21T04:09:52;24.67;;;13.50;;
76409;SDS011;65238;42.662;23.280;2024-02-21T04:12:17;25.17;;;13.23;;
76409;SDS011;65238;42.662;23.280;2024-02-21T04:14:43;25.17;;;14.50;;
76409;SDS011;65238;42.662;23.280;2024-02-21T04:17:08;25.92;;;14.35;;
76409;SDS011;65238;42.662;23.280;2024-02-21T04:19:33;24.83;;;14.43;;
76409;SDS011;65238;42.662;23.280;2024-02-21T04:21:59;21.90;;;13.05;;
76409;SDS011;65238;42.662;23.280;2024-02-21T04:24:25;25.27;;;14.23;;
76409;SDS011;65238;42.662;23.280;2024-02-21T04:26:50;24.75;;;13.85;;
76409;SDS011;65238;42.662;23.280;2024-02-21T04:29:16;25.50;;;14.40;;
76409;SDS011;65238;42.662;23.280;2024-02-21T04:31:41;26.15;;;13.95;;
76409;SDS011;65238;42.662;23.280;2024-02-21T04:34:07;24.63;;;13.05;;
76409;SDS011;65238;42.662;23.280;2024-02-21T04:36:32;26.20;;;14.27;;
76409;SDS011;65238;42.662;23.280;2024-02-21T04:38:58;23.23;;;12.93;;
76409;SDS011;65238;42.662;23.280;2024-02-21T04:41:23;27.23;;;14.38;;
76409;SDS011;65238;42.662;23.280;2024-02-21T04:43:49;23.02;;;13.43;;
76409;SDS011;65238;42.662;23.280;2024-02-21T04:46:14;25.42;;;13.68;;
76409;SDS011;65238;42.662;23.280;2024-02-21T04:48:40;24.58;;;13.50;;
76409;SDS011;65238;42.662;23.280;2024-02-21T04:51:06;28.55;;;15.50;;
76409;SDS011;65238;42.662;23.280;2024-02-21T04:53:31;26.38;;;13.93;;
76409;SDS011;65238;42.662;23.280;2024-02-21T04:55:57;28.45;;;14.90;;
76409;SDS011;65238;42.662;23.280;2024-02-21T04:58:22;27.67;;;14.60;;
76409;SDS011;65238;42.662;23.280;2024-02-21T05:00:48;25.45;;;14.18;;
76409;SDS011;65238;42.662;23.280;2024-02-21T05:03:14;23.45;;;13.95;;
76409;SDS011;65238;42.662;23.280;2024-02-21T05:05:39;27.88;;;14.38;;
76409;SDS011;65238;42.662;23.280;2024-02-21T05:08:05;25.38;;;14.68;;
76409;SDS011;65238;42.662;23.280;2024-02-21T05:10:30;28.58;;;14.77;;
76409;SDS011;65238;42.662;23.280;2024-02-21T05:12:56;28.90;;;14.82;;
76409;SDS011;65238;42.662;23.280;2024-02-21T05:15:21;25.33;;;14.80;;
76409;SDS011;65238;42.662;23.280;2024-02-21T05:17:46;26.20;;;13.82;;
76409;SDS011;65238;42.662;23.280;2024-02-21T05:20:12;30.30;;;15.25;;
76409;SDS011;65238;42.662;23.280;2024-02-21T05:22:37;29.00;;;15.00;;
76409;SDS011;65238;42.662;23.280;2024-02-21T05:25:03;30.25;;;15.57;;
76409;SDS011;65238;42.662;23.280;2024-02-21T05:27:28;29.85;;;15.00;;
76409;SDS011;65238;42.662;23.280;2024-02-21T05:29:54;27.90;;;15.13;;
76409;SDS011;65238;42.662;23.280;2024-02-21T05:32:19;27.85;;;15.13;;
76409;SDS011;65238;42.662;23.280;2024-02-21T05:34:48;26.23;;;14.70;;
76409;SDS011;65238;42.662;23.280;2024-02-21T05:37:13;27.08;;;14.38;;
76409;SDS011;65238;42.662;23.280;2024-02-21T05:39:39;26.75;;;15.38;;
76409;SDS011;65238;42.662;23.280;2024-02-21T05:42:04;24.88;;;14.57;;
76409;SDS011;65238;42.662;23.280;2024-02-21T05:44:30;25.63;;;14.43;;
76409;SDS011;65238;42.662;23.280;2024-02-21T05:46:55;24.65;;;13.73;;
76409;SDS011;65238;42.662;23.280;2024-02-21T05:49:20;21.48;;;12.65;;
76409;SDS011;65238;42.662;23.280;2024-02-21T05:51:46;23.55;;;13.23;;
76409;SDS011;65238;42.662;23.280;2024-02-21T05:54:12;24.58;;;12.60;;
76409;SDS011;65238;42.662;23.280;2024-02-21T05:56:37;25.92;;;13.70;;
76409;SDS011;65238;42.662;23.280;2024-02-21T05:59:03;21.60;;;12.43;;
76409;SDS011;65238;42.662;23.280;2024-02-21T06:01:28;21.20;;;12.50;;
76409;SDS011;65238;42.662;23.280;2024-02-21T06:03:53;22.65;;;13.25;;
76409;SDS011;65238;42.662;23.280;2024-02-21T06:06:19;24.40;;;12.82;;
76409;SDS011;65238;42.662;23.280;2024-02-21T06:08:46;25.88;;;14.55;;
76409;SDS011;65238;42.662;23.280;2024-02-21T06:11:12;25.38;;;14.25;;
76409;SDS011;65238;42.662;23.280;2024-02-21T06:13:38;25.38;;;13.73;;
76409;SDS011;65238;42.662;23.280;2024-02-21T06:16:05;24.55;;;13.38;;
76409;SDS011;65238;42.662;23.280;2024-02-21T06:18:31;22.85;;;12.85;;
76409;SDS011;65238;42.662;23.280;2024-02-21T06:20:57;23.75;;;13.18;;
76409;SDS011;65238;42.662;23.280;2024-02-21T06:23:22;27.98;;;12.95;;
76409;SDS011;65238;42.662;23.280;2024-02-21T06:25:48;27.92;;;13.32;;
76409;SDS011;65238;42.662;23.280;2024-02-21T06:28:13;25.58;;;13.60;;
76409;SDS011;65238;42.662;23.280;2024-02-21T06:30:39;19.45;;;12.73;;
76409;SDS011;65238;42.662;23.280;2024-02-21T06:33:05;23.63;;;12.88;;
76409;SDS011;65238;42.662;23.280;2024-02-21T06:35:30;23.80;;;14.27;;
76409;SDS011;65238;42.662;23.280;2024-02-21T06:37:56;21.20;;;12.27;;
76409;SDS011;65238;42.662;23.280;2024-02-21T06:40:21;23.90;;;13.45;;
76409;SDS011;65238;42.662;23.280;2024-02-21T06:42:47;23.83;;;14.40;;
76409;SDS011;65238;42.662;23.280;2024-02-21T06:45:13;22.75;;;13.32;;
76409;SDS011;65238;42.662;23.280;2024-02-21T06:47:38;22.83;;;13.23;;
76409;SDS011;65238;42.662;23.280;2024-02-21T06:50:04;24.67;;;13.82;;
76409;SDS011;65238;42.662;23.280;2024-02-21T06:52:29;24.10;;;12.45;;
76409;SDS011;65238;42.662;23.280;2024-02-21T06:54:56;24.38;;;13.82;;
76409;SDS011;65238;42.662;23.280;2024-02-21T06:57:22;23.98;;;13.65;;
76409;SDS011;65238;42.662;23.280;2024-02-21T06:59:47;24.73;;;14.10;;
76409;SDS011;65238;42.662;23.280;2024-02-21T07:02:12;28.60;;;13.75;;
76409;SDS011;65238;42.662;23.280;2024-02-21T07:04:38;26.55;;;14.27;;
76409;SDS011;65238;42.662;23.280;2024-02-21T07:07:03;23.17;;;13.90;;
76409;SDS011;65238;42.662;23.280;2024-02-21T07:09:29;23.42;;;13.40;;
76409;SDS011;65238;42.662;23.280;2024-02-21T07:11:56;27.10;;;14.13;;
76409;SDS011;65238;42.662;23.280;2024-02-21T07:14:22;23.63;;;13.48;;
76409;SDS011;65238;42.662;23.280;2024-02-21T07:16:48;25.02;;;13.75;;
76409;SDS011;65238;42.662;23.280;2024-02-21T07:19:13;28.73;;;14.82;;
76409;SDS011;65238;42.662;23.280;2024-02-21T07:21:39;25.95;;;14.05;;
76409;SDS011;65238;42.662;23.280;2024-02-21T07:24:06;27.00;;;13.98;;
76409;SDS011;65238;42.662;23.280;2024-02-21T07:26:32;24.13;;;14.00;;
76409;SDS011;65238;42.662;23.280;2024-02-21T07:28:58;29.65;;;14.52;;
76409;SDS011;65238;42.662;23.280;2024-02-21T07:31:23;24.52;;;14.13;;
76409;SDS011;65238;42.662;23.280;2024-02-21T07:33:49;26.35;;;14.85;;
76409;SDS011;65238;42.662;23.280;2024-02-21T07:36:14;24.30;;;13.77;;
76409;SDS011;65238;42.662;23.280;2024-02-21T07:38:40;27.13;;;14.38;;
76409;SDS011;65238;42.662;23.280;2024-02-21T07:41:06;28.90;;;15.18;;
76409;SDS011;65238;42.662;23.280;2024-02-21T07:43:31;27.00;;;13.02;;
76409;SDS011;65238;42.662;23.280;2024-02-21T07:45:56;26.10;;;14.52;;
76409;SDS011;65238;42.662;23.280;2024-02-21T07:48:22;28.15;;;15.50;;
76409;SDS011;65238;42.662;23.280;2024-02-21T07:50:50;27.58;;;14.65;;
76409;SDS011;65238;42.662;23.280;2024-02-21T07:53:16;28.80;;;15.30;;
76409;SDS011;65238;42.662;23.280;2024-02-21T07:55:41;26.95;;;15.70;;
76409;SDS011;65238;42.662;23.280;2024-02-21T07:58:07;25.70;;;15.40;;
76409;SDS011;65238;42.662;23.280;2024-02-21T08:00:32;28.48;;;15.73;;
76409;SDS011;65238;42.662;23.280;2024-02-21T08:02:58;28.13;;;15.25;;
76409;SDS011;65238;42.662;23.280;2024-02-21T08:05:23;28.75;;;16.38;;
76409;SDS011;65238;42.662;23.280;2024-02-21T08:07:49;28.30;;;15.98;;
76409;SDS011;65238;42.662;23.280;2024-02-21T08:10:15;28.02;;;14.70;;
76409;SDS011;65238;42.662;23.280;2024-02-21T08:12:40;25.33;;;15.00;;
76409;SDS011;65238;42.662;23.280;2024-02-21T08:15:06;30.38;;;16.98;;
76409;SDS011;65238;42.662;23.280;2024-02-21T08:17:36;28.75;;;14.82;;
76409;SDS011;65238;42.662;23.280;2024-02-21T08:20:02;25.88;;;15.18;;
76409;SDS011;65238;42.662;23.280;2024-02-21T08:22:29;25.02;;;13.52;;
76409;SDS011;65238;42.662;23.280;2024-02-21T08:24:55;22.80;;;14.18;;
76409;SDS011;65238;42.662;23.280;2024-02-21T08:27:20;22.17;;;13.23;;
76409;SDS011;65238;42.662;23.280;2024-02-21T08:29:45;21.35;;;12.80;;
76409;SDS011;65238;42.662;23.280;2024-02-21T08:32:11;22.05;;;12.82;;
76409;SDS011;65238;42.662;23.280;2024-02-21T08:34:36;23.13;;;12.93;;
76409;SDS011;65238;42.662;23.280;2024-02-21T08:37:02;23.45;;;13.32;;
76409;SDS011;65238;42.662;23.280;2024-02-21T08:39:27;21.40;;;12.52;;
76409;SDS011;65238;42.662;23.280;2024-02-21T08:41:55;26.02;;;13.60;;
76409;SDS011;65238;42.662;23.280;2024-02-21T08:44:22;20.83;;;12.10;;
76409;SDS011;65238;42.662;23.280;2024-02-21T08:46:48;25.92;;;12.80;;
76409;SDS011;65238;42.662;23.280;2024-02-21T08:49:13;34.88;;;14.88;;
76409;SDS011;65238;42.662;23.280;2024-02-21T08:51:38;44.67;;;17.25;;
76409;SDS011;65238;42.662;23.280;2024-02-21T08:54:04;37.55;;;16.33;;
76409;SDS011;65238;42.662;23.280;2024-02-21T08:56:30;39.92;;;17.45;;
76409;SDS011;65238;42.662;23.280;2024-02-21T08:58:56;27.90;;;13.55;;
76409;SDS011;65238;42.662;23.280;2024-02-21T09:01:23;25.23;;;13.52;;
76409;SDS011;65238;42.662;23.280;2024-02-21T09:03:48;29.35;;;12.50;;
76409;SDS011;65238;42.662;23.280;2024-02-21T09:06:18;21.90;;;12.57;;
76409;SDS011;65238;42.662;23.280;2024-02-21T09:08:44;30.20;;;14.52;;
76409;SDS011;65238;42.662;23.280;2024-02-21T09:11:10;20.42;;;12.25;;
76409;SDS011;65238;42.662;23.280;2024-02-21T09:13:35;23.15;;;11.75;;
76409;SDS011;65238;42.662;23.280;2024-02-21T09:16:01;18.08;;;11.35;;
76409;SDS011;65238;42.662;23.280;2024-02-21T09:18:26;20.73;;;11.27;;
76409;SDS011;65238;42.662;23.280;2024-02-21T09:20:51;20.75;;;11.27;;
76409;SDS011;65238;42.662;23.280;2024-02-21T09:23:17;17.65;;;10.95;;
76409;SDS011;65238;42.662;23.280;2024-02-21T09:25:44;21.13;;;11.55;;
76409;SDS011;65238;42.662;23.280;2024-02-21T09:28:11;20.67;;;11.60;;
76409;SDS011;65238;42.662;23.280;2024-02-21T09:30:38;20.27;;;10.50;;
76409;SDS011;65238;42.662;23.280;2024-02-21T09:33:03;23.13;;;11.25;;
76409;SDS011;65238;42.662;23.280;2024-02-21T09:35:30;18.17;;;11.00;;
76409;SDS011;65238;42.662;23.280;2024-02-21T09:37:56;18.17;;;10.98;;
76409;SDS011;65238;42.662;23.280;2024-02-21T09:40:21;19.83;;;11.45;;
76409;SDS011;65238;42.662;23.280;2024-02-21T09:42:47;19.08;;;11.00;;
76409;SDS011;65238;42.662;23.280;2024-02-21T09:45:22;19.80;;;11.65;;
76409;SDS011;65238;42.662;23.280;2024-02-21T09:50:34;16.75;;;11.50;;
76409;SDS011;65238;42.662;23.280;2024-02-21T09:53:01;20.25;;;11.52;;
76409;SDS011;65238;42.662;23.280;2024-02-21T09:55:28;18.00;;;10.57;;
76409;SDS011;65238;42.662;23.280;2024-02-21T09:57:54;15.38;;;10.10;;
76409;SDS011;65238;42.662;23.280;2024-02-21T10:00:20;16.92;;;10.38;;
76409;SDS011;65238;42.662;23.280;2024-02-21T10:02:48;16.15;;;10.43;;
76409;SDS011;65238;42.662;23.280;2024-02-21T10:05:17;16.00;;;10.20;;
76409;SDS011;65238;42.662;23.280;2024-02-21T10:07:43;17.75;;;9.77;;
76409;SDS011;65238;42.662;23.280;2024-02-21T10:10:09;15.88;;;9.13;;
76409;SDS011;65238;42.662;23.280;2024-02-21T10:12:34;14.68;;;9.10;;
76409;SDS011;65238;42.662;23.280;2024-02-21T10:15:02;15.50;;;9.13;;
76409;SDS011;65238;42.662;23.280;2024-02-21T10:17:28;13.65;;;9.05;;
76409;SDS011;65238;42.662;23.280;2024-02-21T10:19:53;14.43;;;8.38;;
76409;SDS011;65238;42.662;23.280;2024-02-21T10:22:19;14.93;;;8.93;;
76409;SDS011;65238;42.662;23.280;2024-02-21T10:24:46;13.95;;;9.18;;
76409;SDS011;65238;42.662;23.280;2024-02-21T10:27:11;12.82;;;8.70;;
76409;SDS011;65238;42.662;23.280;2024-02-21T10:29:37;13.48;;;9.05;;
76409;SDS011;65238;42.662;23.280;2024-02-21T10:32:21;14.52;;;8.57;;
76409;SDS011;65238;42.662;23.280;2024-02-21T10:34:47;14.18;;;8.82;;
76409;SDS011;65238;42.662;23.280;2024-02-21T10:37:16;10.73;;;7.75;;
76409;SDS011;65238;42.662;23.280;2024-02-21T10:39:42;13.32;;;9.00;;
76409;SDS011;65238;42.662;23.280;2024-02-21T10:42:10;12.55;;;8.27;;
76409;SDS011;65238;42.662;23.280;2024-02-21T10:44:37;11.82;;;7.43;;
76409;SDS011;65238;42.662;23.280;2024-02-21T10:47:08;13.80;;;8.13;;
76409;SDS011;65238;42.662;23.280;2024-02-21T10:49:38;13.27;;;8.10;;
76409;SDS011;65238;42.662;23.280;2024-02-21T10:57:22;10.57;;;7.32;;
76409;SDS011;65238;42.662;23.280;2024-02-21T10:59:48;13.70;;;6.88;;
76409;SDS011;65238;42.662;23.280;2024-02-21T11:02:14;14.07;;;7.28;;
76409;SDS011;65238;42.662;23.280;2024-02-21T11:04:40;10.77;;;7.53;;
76409;SDS011;65238;42.662;23.280;2024-02-21T11:07:06;10.77;;;6.82;;
76409;SDS011;65238;42.662;23.280;2024-02-21T11:09:32;11.38;;;6.63;;
76409;SDS011;65238;42.662;23.280;2024-02-21T11:11:58;8.38;;;5.68;;
76409;SDS011;65238;42.662;23.280;2024-02-21T11:14:27;8.93;;;6.20;;
76409;SDS011;65238;42.662;23.280;2024-02-21T11:16:53;10.40;;;6.18;;
76409;SDS011;65238;42.662;23.280;2024-02-21T11:19:30;9.85;;;6.68;;
76409;SDS011;65238;42.662;23.280;2024-02-21T11:21:56;10.52;;;6.28;;
76409;SDS011;65238;42.662;23.280;2024-02-21T11:24:29;10.80;;;6.25;;
76409;SDS011;65238;42.662;23.280;2024-02-21T11:26:55;11.20;;;6.18;;
76409;SDS011;65238;42.662;23.280;2024-02-21T11:29:24;7.82;;;5.25;;
76409;SDS011;65238;42.662;23.280;2024-02-21T11:31:50;7.55;;;5.22;;
76409;SDS011;65238;42.662;23.280;2024-02-21T11:34:19;8.40;;;5.68;;
76409;SDS011;65238;42.662;23.280;2024-02-21T11:36:51;7.55;;;5.55;;
76409;SDS011;65238;42.662;23.280;2024-02-21T11:39:18;8.25;;;5.40;;
76409;SDS011;65238;42.662;23.280;2024-02-21T11:41:44;9.25;;;6.43;;
76409;SDS011;65238;42.662;23.280;2024-02-21T11:44:09;9.70;;;5.72;;
76409;SDS011;65238;42.662;23.280;2024-02-21T11:46:34;7.72;;;4.95;;
76409;SDS011;65238;42.662;23.280;2024-02-21T11:49:00;9.02;;;5.47;;
76409;SDS011;65238;42.662;23.280;2024-02-21T11:51:28;8.82;;;5.38;;
76409;SDS011;65238;42.662;23.280;2024-02-21T11:53:54;11.05;;;5.80;;
76409;SDS011;65238;42.662;23.280;2024-02-21T11:56:19;7.55;;;4.70;;
76409;SDS011;65238;42.662;23.280;2024-02-21T11:58:46;9.75;;;6.00;;
76409;SDS011;65238;42.662;23.280;2024-02-21T12:01:15;10.45;;;5.78;;
76409;SDS011;65238;42.662;23.280;2024-02-21T12:03:42;8.15;;;5.97;;
76409;SDS011;65238;42.662;23.280;2024-02-21T12:06:07;7.57;;;5.10;;
76409;SDS011;65238;42.662;23.280;2024-02-21T12:08:43;8.52;;;5.97;;
76409;SDS011;65238;42.662;23.280;2024-02-21T12:11:19;8.15;;;5.65;;
76409;SDS011;65238;42.662;23.280;2024-02-21T12:13:58;10.75;;;7.03;;
76409;SDS011;65238;42.662;23.280;2024-02-21T12:16:30;21.48;;;11.38;;
76409;SDS011;65238;42.662;23.280;2024-02-21T12:18:56;20.45;;;11.00;;
76409;SDS011;65238;42.662;23.280;2024-02-21T12:21:25;18.58;;;9.82;;
76409;SDS011;65238;42.662;23.280;2024-02-21T12:23:53;12.93;;;7.18;;
76409;SDS011;65238;42.662;23.280;2024-02-21T12:26:20;9.43;;;6.05;;
76409;SDS011;65238;42.662;23.280;2024-02-21T12:28:45;10.90;;;6.75;;
76409;SDS011;65238;42.662;23.280;2024-02-21T12:31:11;10.23;;;5.78;;
76409;SDS011;65238;42.662;23.280;2024-02-21T12:33:36;8.68;;;5.75;;
76409;SDS011;65238;42.662;23.280;2024-02-21T12:36:02;9.02;;;6.28;;
76409;SDS011;65238;42.662;23.280;2024-02-21T12:38:29;7.53;;;5.82;;
76409;SDS011;65238;42.662;23.280;2024-02-21T12:40:54;10.10;;;5.80;;
76409;SDS011;65238;42.662;23.280;2024-02-21T12:43:20;10.27;;;6.00;;
76409;SDS011;65238;42.662;23.280;2024-02-21T12:45:45;9.00;;;5.63;;
76409;SDS011;65238;42.662;23.280;2024-02-21T12:48:11;10.85;;;5.45;;
76409;SDS011;65238;42.662;23.280;2024-02-21T12:50:37;10.13;;;6.15;;
76409;SDS011;65238;42.662;23.280;2024-02-21T12:53:02;11.10;;;6.50;;
76409;SDS011;65238;42.662;23.280;2024-02-21T12:55:28;10.90;;;5.93;;
76409;SDS011;65238;42.662;23.280;2024-02-21T12:57:54;7.93;;;5.50;;
76409;SDS011;65238;42.662;23.280;2024-02-21T13:00:19;9.90;;;6.38;;
76409;SDS011;65238;42.662;23.280;2024-02-21T13:02:46;10.55;;;5.93;;
76409;SDS011;65238;42.662;23.280;2024-02-21T13:05:11;12.93;;;6.78;;
76409;SDS011;65238;42.662;23.280;2024-02-21T13:07:37;11.20;;;6.30;;
76409;SDS011;65238;42.662;23.280;2024-02-21T13:10:02;11.10;;;7.00;;
76409;SDS011;65238;42.662;23.280;2024-02-21T13:12:30;11.00;;;6.40;;
76409;SDS011;65238;42.662;23.280;2024-02-21T13:14:55;10.25;;;6.75;;
76409;SDS011;65238;42.662;23.280;2024-02-21T13:17:21;10.45;;;6.40;;
76409;SDS011;65238;42.662;23.280;2024-02-21T13:19:47;10.85;;;6.40;;
76409;SDS011;65238;42.662;23.280;2024-02-21T13:22:13;12.95;;;6.50;;
76409;SDS011;65238;42.662;23.280;2024-02-21T13:24:38;11.23;;;7.40;;
76409;SDS011;65238;42.662;23.280;2024-02-21T13:27:04;8.50;;;6.63;;
76409;SDS011;65238;42.662;23.280;2024-02-21T13:29:30;10.82;;;7.13;;
76409;SDS011;65238;42.662;23.280;2024-02-21T13:31:55;15.77;;;7.80;;
76409;SDS011;65238;42.662;23.280;2024-02-21T13:34:20;13.15;;;7.20;;
76409;SDS011;65238;42.662;23.280;2024-02-21T13:36:46;12.73;;;8.02;;
76409;SDS011;65238;42.662;23.280;2024-02-21T13:39:11;12.05;;;7.22;;
76409;SDS011;65238;42.662;23.280;2024-02-21T13:41:40;10.13;;;6.22;;
76409;SDS011;65238;42.662;23.280;2024-02-21T13:44:07;10.45;;;5.65;;
76409;SDS011;65238;42.662;23.280;2024-02-21T13:46:34;8.20;;;5.32;;
76409;SDS011;65238;42.662;23.280;2024-02-21T13:49:02;9.07;;;5.30;;
76409;SDS011;65238;42.662;23.280;2024-02-21T13:51:32;12.55;;;6.30;;
76409;SDS011;65238;42.662;23.280;2024-02-21T13:54:05;8.52;;;5.07;;
76409;SDS011;65238;42.662;23.280;2024-02-21T13:56:34;13.15;;;6.65;;
76409;SDS011;65238;42.662;23.280;2024-02-21T13:59:00;11.52;;;7.20;;
76409;SDS011;65238;42.662;23.280;2024-02-21T14:01:25;12.85;;;6.60;;
76409;SDS011;65238;42.662;23.280;2024-02-21T14:03:53;12.50;;;7.05;;
76409;SDS011;65238;42.662;23.280;2024-02-21T14:06:19;10.27;;;7.30;;
76409;SDS011;65238;42.662;23.280;2024-02-21T14:08:44;14.07;;;7.63;;
76409;SDS011;65238;42.662;23.280;2024-02-21T14:11:10;11.80;;;7.25;;
76409;SDS011;65238;42.662;23.280;2024-02-21T14:13:35;13.10;;;7.68;;
76409;SDS011;65238;42.662;23.280;2024-02-21T14:16:01;13.65;;;8.32;;
76409;SDS011;65238;42.662;23.280;2024-02-21T14:18:27;12.10;;;7.30;;